sensor_id;sensor_type;location;lat;lon;timestamp;temperature;humidity
76172;DHT22;64929;51.178;4.138;2023-08-30T00:00:54;15.60;91.80
76172;DHT22;64929;51.178;4.138;2023-08-30T00:03:21;15.50;90.90
76172;DHT22;64929;51.178;4.138;2023-08-30T00:05:46;15.70;90.90
76172;DHT22;64929;51.178;4.138;2023-08-30T00:08:12;15.80;90.50
76172;DHT22;64929;51.178;4.138;2023-08-30T00:10:39;15.70;90.60
76172;DHT22;64929;51.178;4.138;2023-08-30T00:13:04;15.80;90.90
76172;DHT22;64929;51.178;4.138;2023-08-30T00:15:30;15.70;91.10
76172;DHT22;64929;51.178;4.138;2023-08-30T00:17:57;15.60;90.50
76172;DHT22;64929;51.178;4.138;2023-08-30T00:20:23;15.70;90.60
76172;DHT22;64929;51.178;4.138;2023-08-30T00:22:50;15.80;90.50
76172;DHT22;64929;51.178;4.138;2023-08-30T00:25:16;15.80;90.10
76172;DHT22;64929;51.178;4.138;2023-08-30T00:27:42;15.80;90.60
76172;DHT22;64929;51.178;4.138;2023-08-30T00:30:08;15.60;90.60
76172;DHT22;64929;51.178;4.138;2023-08-30T00:32:35;15.70;90.40
76172;DHT22;64929;51.178;4.138;2023-08-30T00:35:01;15.60;90.60
76172;DHT22;64929;51.178;4.138;2023-08-30T00:37:28;15.70;90.60
76172;DHT22;64929;51.178;4.138;2023-08-30T00:39:53;15.60;90.40
76172;DHT22;64929;51.178;4.138;2023-08-30T00:42:19;15.60;90.30
76172;DHT22;64929;51.178;4.138;2023-08-30T00:44:45;15.60;90.80
76172;DHT22;64929;51.178;4.138;2023-08-30T00:47:11;15.50;90.90
76172;DHT22;64929;51.178;4.138;2023-08-30T00:49:37;15.40;91.00
76172;DHT22;64929;51.178;4.138;2023-08-30T00:52:07;15.40;91.10
76172;DHT22;64929;51.178;4.138;2023-08-30T00:54:34;15.30;91.30
76172;DHT22;64929;51.178;4.138;2023-08-30T00:57:00;15.50;91.00
76172;DHT22;64929;51.178;4.138;2023-08-30T00:59:27;15.60;90.70
76172;DHT22;64929;51.178;4.138;2023-08-30T01:01:54;15.40;91.10
76172;DHT22;64929;51.178;4.138;2023-08-30T01:04:20;15.30;91.60
76172;DHT22;64929;51.178;4.138;2023-08-30T01:06:47;15.30;91.70
76172;DHT22;64929;51.178;4.138;2023-08-30T01:09:14;15.40;91.50
76172;DHT22;64929;51.178;4.138;2023-08-30T01:11:46;15.30;91.50
76172;DHT22;64929;51.178;4.138;2023-08-30T01:14:16;15.40;91.50
76172;DHT22;64929;51.178;4.138;2023-08-30T01:16:44;15.30;91.60
76172;DHT22;64929;51.178;4.138;2023-08-30T01:22:20;15.30;91.80
76172;DHT22;64929;51.178;4.138;2023-08-30T01:25:55;15.40;91.60
76172;DHT22;64929;51.178;4.138;2023-08-30T01:27:56;15.30;91.60
76172;DHT22;64929;51.178;4.138;2023-08-30T01:30:24;15.30;91.70
76172;DHT22;64929;51.178;4.138;2023-08-30T01:32:52;15.10;91.90
76172;DHT22;64929;51.178;4.138;2023-08-30T01:35:18;15.10;92.10
76172;DHT22;64929;51.178;4.138;2023-08-30T01:37:46;15.20;92.00
76172;DHT22;64929;51.178;4.138;2023-08-30T01:40:13;15.20;92.10
76172;DHT22;64929;51.178;4.138;2023-08-30T01:42:42;15.30;91.80
76172;DHT22;64929;51.178;4.138;2023-08-30T01:45:10;15.30;91.90
76172;DHT22;64929;51.178;4.138;2023-08-30T01:47:42;15.30;91.70
76172;DHT22;64929;51.178;4.138;2023-08-30T01:50:09;15.50;91.30
76172;DHT22;64929;51.178;4.138;2023-08-30T01:52:36;15.40;91.90
76172;DHT22;64929;51.178;4.138;2023-08-30T01:55:03;15.30;91.70
76172;DHT22;64929;51.178;4.138;2023-08-30T01:57:30;15.30;91.70
76172;DHT22;64929;51.178;4.138;2023-08-30T01:59:56;15.10;92.00
76172;DHT22;64929;51.178;4.138;2023-08-30T02:02:24;14.90;92.30
76172;DHT22;64929;51.178;4.138;2023-08-30T02:04:49;15.00;92.00
76172;DHT22;64929;51.178;4.138;2023-08-30T02:07:25;15.10;92.10
76172;DHT22;64929;51.178;4.138;2023-08-30T02:10:00;15.10;92.00
76172;DHT22;64929;51.178;4.138;2023-08-30T02:12:33;15.00;92.30
76172;DHT22;64929;51.178;4.138;2023-08-30T02:15:01;14.80;92.60
76172;DHT22;64929;51.178;4.138;2023-08-30T02:17:29;15.00;92.40
76172;DHT22;64929;51.178;4.138;2023-08-30T02:19:55;15.00;92.30
76172;DHT22;64929;51.178;4.138;2023-08-30T02:22:21;15.10;92.20
76172;DHT22;64929;51.178;4.138;2023-08-30T02:24:47;15.00;92.20
76172;DHT22;64929;51.178;4.138;2023-08-30T02:27:14;15.10;92.20
76172;DHT22;64929;51.178;4.138;2023-08-30T02:29:39;15.20;92.20
76172;DHT22;64929;51.178;4.138;2023-08-30T02:32:10;15.10;92.30
76172;DHT22;64929;51.178;4.138;2023-08-30T02:34:36;15.10;92.40
76172;DHT22;64929;51.178;4.138;2023-08-30T02:37:05;15.10;92.20
76172;DHT22;64929;51.178;4.138;2023-08-30T02:39:31;15.20;92.10
76172;DHT22;64929;51.178;4.138;2023-08-30T02:41:56;15.00;92.20
76172;DHT22;64929;51.178;4.138;2023-08-30T02:44:22;15.10;92.30
76172;DHT22;64929;51.178;4.138;2023-08-30T02:46:49;15.00;92.70
76172;DHT22;64929;51.178;4.138;2023-08-30T02:49:15;15.00;92.60
76172;DHT22;64929;51.178;4.138;2023-08-30T02:51:41;15.10;92.60
76172;DHT22;64929;51.178;4.138;2023-08-30T02:54:06;15.20;92.50
76172;DHT22;64929;51.178;4.138;2023-08-30T02:56:32;15.20;92.60
76172;DHT22;64929;51.178;4.138;2023-08-30T02:58:59;15.20;92.50
76172;DHT22;64929;51.178;4.138;2023-08-30T03:01:25;15.10;92.70
76172;DHT22;64929;51.178;4.138;2023-08-30T03:03:51;15.20;92.70
76172;DHT22;64929;51.178;4.138;2023-08-30T03:06:16;15.20;92.80
76172;DHT22;64929;51.178;4.138;2023-08-30T03:08:42;15.10;92.90
76172;DHT22;64929;51.178;4.138;2023-08-30T03:11:12;15.00;93.00
76172;DHT22;64929;51.178;4.138;2023-08-30T03:13:38;15.00;93.20
76172;DHT22;64929;51.178;4.138;2023-08-30T03:16:14;15.10;93.20
76172;DHT22;64929;51.178;4.138;2023-08-30T03:18:41;15.00;93.30
76172;DHT22;64929;51.178;4.138;2023-08-30T03:21:08;15.00;93.30
76172;DHT22;64929;51.178;4.138;2023-08-30T03:23:35;14.90;93.30
76172;DHT22;64929;51.178;4.138;2023-08-30T03:26:09;15.00;93.40
76172;DHT22;64929;51.178;4.138;2023-08-30T03:28:36;15.00;93.30
76172;DHT22;64929;51.178;4.138;2023-08-30T03:31:10;15.00;93.30
76172;DHT22;64929;51.178;4.138;2023-08-30T03:33:36;14.80;93.80
76172;DHT22;64929;51.178;4.138;2023-08-30T03:36:02;14.80;94.10
76172;DHT22;64929;51.178;4.138;2023-08-30T03:38:28;14.80;94.10
76172;DHT22;64929;51.178;4.138;2023-08-30T03:40:54;14.90;94.00
76172;DHT22;64929;51.178;4.138;2023-08-30T03:43:20;14.90;94.10
76172;DHT22;64929;51.178;4.138;2023-08-30T03:45:46;15.00;93.90
76172;DHT22;64929;51.178;4.138;2023-08-30T03:48:13;15.00;94.10
76172;DHT22;64929;51.178;4.138;2023-08-30T03:50:38;15.00;94.20
76172;DHT22;64929;51.178;4.138;2023-08-30T03:53:05;14.90;94.40
76172;DHT22;64929;51.178;4.138;2023-08-30T03:55:31;14.90;94.40
76172;DHT22;64929;51.178;4.138;2023-08-30T03:57:57;14.90;94.40
76172;DHT22;64929;51.178;4.138;2023-08-30T04:00:24;14.70;94.80
76172;DHT22;64929;51.178;4.138;2023-08-30T04:02:49;14.70;95.00
76172;DHT22;64929;51.178;4.138;2023-08-30T04:05:15;14.70;95.20
76172;DHT22;64929;51.178;4.138;2023-08-30T04:07:41;14.70;95.40
76172;DHT22;64929;51.178;4.138;2023-08-30T04:10:07;14.80;95.40
76172;DHT22;64929;51.178;4.138;2023-08-30T04:12:34;14.90;95.40
76172;DHT22;64929;51.178;4.138;2023-08-30T04:15:01;15.00;95.40
76172;DHT22;64929;51.178;4.138;2023-08-30T04:17:27;15.10;95.40
76172;DHT22;64929;51.178;4.138;2023-08-30T04:19:54;15.00;95.40
76172;DHT22;64929;51.178;4.138;2023-08-30T04:22:20;14.90;95.60
76172;DHT22;64929;51.178;4.138;2023-08-30T04:24:46;14.90;95.90
76172;DHT22;64929;51.178;4.138;2023-08-30T04:27:12;15.10;95.90
76172;DHT22;64929;51.178;4.138;2023-08-30T04:29:38;15.20;95.90
76172;DHT22;64929;51.178;4.138;2023-08-30T04:32:04;15.20;96.00
76172;DHT22;64929;51.178;4.138;2023-08-30T04:34:31;15.00;96.30
76172;DHT22;64929;51.178;4.138;2023-08-30T04:36:58;14.80;96.70
76172;DHT22;64929;51.178;4.138;2023-08-30T04:39:32;14.80;96.90
76172;DHT22;64929;51.178;4.138;2023-08-30T04:42:00;14.70;97.40
76172;DHT22;64929;51.178;4.138;2023-08-30T04:44:29;14.60;97.70
76172;DHT22;64929;51.178;4.138;2023-08-30T04:47:03;14.50;97.90
76172;DHT22;64929;51.178;4.138;2023-08-30T04:49:30;14.70;97.80
76172;DHT22;64929;51.178;4.138;2023-08-30T04:51:55;14.60;98.10
76172;DHT22;64929;51.178;4.138;2023-08-30T04:54:21;14.50;98.20
76172;DHT22;64929;51.178;4.138;2023-08-30T04:56:47;14.40;98.50
76172;DHT22;64929;51.178;4.138;2023-08-30T04:59:13;14.40;98.70
76172;DHT22;64929;51.178;4.138;2023-08-30T05:01:39;14.50;98.60
76172;DHT22;64929;51.178;4.138;2023-08-30T05:04:07;14.40;98.90
76172;DHT22;64929;51.178;4.138;2023-08-30T05:06:34;14.50;99.10
76172;DHT22;64929;51.178;4.138;2023-08-30T05:09:03;14.50;99.00
76172;DHT22;64929;51.178;4.138;2023-08-30T05:11:29;14.40;99.10
76172;DHT22;64929;51.178;4.138;2023-08-30T05:13:56;14.40;99.40
76172;DHT22;64929;51.178;4.138;2023-08-30T05:16:22;14.20;99.70
76172;DHT22;64929;51.178;4.138;2023-08-30T05:18:48;14.30;99.90
76172;DHT22;64929;51.178;4.138;2023-08-30T05:21:14;14.30;99.90
76172;DHT22;64929;51.178;4.138;2023-08-30T05:23:40;14.30;99.90
76172;DHT22;64929;51.178;4.138;2023-08-30T05:26:10;14.30;99.90
76172;DHT22;64929;51.178;4.138;2023-08-30T05:28:38;14.20;99.90
76172;DHT22;64929;51.178;4.138;2023-08-30T05:31:04;14.30;99.90
76172;DHT22;64929;51.178;4.138;2023-08-30T05:33:30;14.30;99.90
76172;DHT22;64929;51.178;4.138;2023-08-30T05:35:56;14.40;99.90
76172;DHT22;64929;51.178;4.138;2023-08-30T05:38:22;14.40;99.90
76172;DHT22;64929;51.178;4.138;2023-08-30T05:40:48;14.40;99.90
76172;DHT22;64929;51.178;4.138;2023-08-30T05:43:14;14.30;99.90
76172;DHT22;64929;51.178;4.138;2023-08-30T05:45:41;14.10;99.90
76172;DHT22;64929;51.178;4.138;2023-08-30T05:48:07;14.40;99.90
76172;DHT22;64929;51.178;4.138;2023-08-30T05:50:33;14.10;99.90
76172;DHT22;64929;51.178;4.138;2023-08-30T05:52:59;14.20;99.90
76172;DHT22;64929;51.178;4.138;2023-08-30T05:55:25;14.30;99.90
76172;DHT22;64929;51.178;4.138;2023-08-30T05:57:50;14.30;99.90
76172;DHT22;64929;51.178;4.138;2023-08-30T06:00:16;14.30;99.90
76172;DHT22;64929;51.178;4.138;2023-08-30T06:02:42;14.30;99.90
76172;DHT22;64929;51.178;4.138;2023-08-30T06:05:09;14.40;99.90
76172;DHT22;64929;51.178;4.138;2023-08-30T06:07:35;14.40;99.90
76172;DHT22;64929;51.178;4.138;2023-08-30T06:10:01;14.30;99.90
76172;DHT22;64929;51.178;4.138;2023-08-30T06:12:27;14.30;99.90
76172;DHT22;64929;51.178;4.138;2023-08-30T06:14:53;14.40;99.90
76172;DHT22;64929;51.178;4.138;2023-08-30T06:17:19;14.40;99.90
76172;DHT22;64929;51.178;4.138;2023-08-30T06:19:45;14.40;99.90
76172;DHT22;64929;51.178;4.138;2023-08-30T06:22:11;14.50;99.90
76172;DHT22;64929;51.178;4.138;2023-08-30T06:24:37;14.50;99.90
76172;DHT22;64929;51.178;4.138;2023-08-30T06:27:04;14.60;99.90
76172;DHT22;64929;51.178;4.138;2023-08-30T06:29:29;14.50;99.90
76172;DHT22;64929;51.178;4.138;2023-08-30T06:31:55;14.50;99.90
76172;DHT22;64929;51.178;4.138;2023-08-30T06:34:21;14.50;99.90
76172;DHT22;64929;51.178;4.138;2023-08-30T06:36:47;14.50;99.90
76172;DHT22;64929;51.178;4.138;2023-08-30T06:39:13;14.60;99.90
76172;DHT22;64929;51.178;4.138;2023-08-30T06:41:39;14.60;99.90
76172;DHT22;64929;51.178;4.138;2023-08-30T06:44:05;14.60;99.90
76172;DHT22;64929;51.178;4.138;2023-08-30T06:46:31;14.70;99.90
76172;DHT22;64929;51.178;4.138;2023-08-30T06:48:57;14.80;99.90
76172;DHT22;64929;51.178;4.138;2023-08-30T06:51:23;14.70;99.90
76172;DHT22;64929;51.178;4.138;2023-08-30T06:53:48;14.70;99.90
76172;DHT22;64929;51.178;4.138;2023-08-30T06:56:14;14.60;99.90
76172;DHT22;64929;51.178;4.138;2023-08-30T06:58:40;14.60;99.90
76172;DHT22;64929;51.178;4.138;2023-08-30T07:01:06;14.80;99.90
76172;DHT22;64929;51.178;4.138;2023-08-30T07:03:32;14.80;99.90
76172;DHT22;64929;51.178;4.138;2023-08-30T07:05:58;14.90;99.90
76172;DHT22;64929;51.178;4.138;2023-08-30T07:08:23;15.00;99.90
76172;DHT22;64929;51.178;4.138;2023-08-30T07:10:51;15.00;99.90
76172;DHT22;64929;51.178;4.138;2023-08-30T07:13:17;15.00;99.90
76172;DHT22;64929;51.178;4.138;2023-08-30T07:15:44;15.10;99.90
76172;DHT22;64929;51.178;4.138;2023-08-30T07:18:10;15.20;99.90
76172;DHT22;64929;51.178;4.138;2023-08-30T07:20:35;15.10;99.90
76172;DHT22;64929;51.178;4.138;2023-08-30T07:23:02;15.20;99.90
76172;DHT22;64929;51.178;4.138;2023-08-30T07:25:30;15.20;99.90
76172;DHT22;64929;51.178;4.138;2023-08-30T07:27:56;15.30;99.90
76172;DHT22;64929;51.178;4.138;2023-08-30T07:30:22;15.40;99.90
76172;DHT22;64929;51.178;4.138;2023-08-30T07:32:48;15.40;99.90
76172;DHT22;64929;51.178;4.138;2023-08-30T07:35:14;15.40;99.90
76172;DHT22;64929;51.178;4.138;2023-08-30T07:37:39;15.60;99.90
76172;DHT22;64929;51.178;4.138;2023-08-30T07:40:06;15.70;99.90
76172;DHT22;64929;51.178;4.138;2023-08-30T07:42:32;15.80;99.90
76172;DHT22;64929;51.178;4.138;2023-08-30T07:44:58;15.80;99.90
76172;DHT22;64929;51.178;4.138;2023-08-30T07:47:23;15.80;99.90
76172;DHT22;64929;51.178;4.138;2023-08-30T07:49:49;15.90;99.90
76172;DHT22;64929;51.178;4.138;2023-08-30T07:52:15;16.10;99.90
76172;DHT22;64929;51.178;4.138;2023-08-30T07:54:41;16.20;99.90
76172;DHT22;64929;51.178;4.138;2023-08-30T07:57:07;16.20;99.90
76172;DHT22;64929;51.178;4.138;2023-08-30T07:59:37;16.20;99.90
76172;DHT22;64929;51.178;4.138;2023-08-30T08:02:03;16.30;99.90
76172;DHT22;64929;51.178;4.138;2023-08-30T08:04:31;16.30;99.90
76172;DHT22;64929;51.178;4.138;2023-08-30T08:06:57;16.30;99.90
76172;DHT22;64929;51.178;4.138;2023-08-30T08:09:23;16.60;99.90
76172;DHT22;64929;51.178;4.138;2023-08-30T08:11:49;16.60;99.90
76172;DHT22;64929;51.178;4.138;2023-08-30T08:14:15;16.40;99.90
76172;DHT22;64929;51.178;4.138;2023-08-30T08:16:40;16.30;99.90
76172;DHT22;64929;51.178;4.138;2023-08-30T08:19:06;16.20;99.90
76172;DHT22;64929;51.178;4.138;2023-08-30T08:21:33;16.40;99.90
76172;DHT22;64929;51.178;4.138;2023-08-30T08:23:59;16.50;99.90
76172;DHT22;64929;51.178;4.138;2023-08-30T08:26:25;16.60;99.90
76172;DHT22;64929;51.178;4.138;2023-08-30T08:28:51;17.00;99.90
76172;DHT22;64929;51.178;4.138;2023-08-30T08:31:17;17.10;99.90
76172;DHT22;64929;51.178;4.138;2023-08-30T08:33:43;17.10;99.90
76172;DHT22;64929;51.178;4.138;2023-08-30T08:36:09;17.10;99.90
76172;DHT22;64929;51.178;4.138;2023-08-30T08:38:36;17.20;99.90
76172;DHT22;64929;51.178;4.138;2023-08-30T08:41:08;17.00;99.90
76172;DHT22;64929;51.178;4.138;2023-08-30T08:43:37;16.90;99.90
76172;DHT22;64929;51.178;4.138;2023-08-30T08:46:06;16.90;99.90
76172;DHT22;64929;51.178;4.138;2023-08-30T08:48:39;17.00;99.90
76172;DHT22;64929;51.178;4.138;2023-08-30T08:51:05;17.20;99.90
76172;DHT22;64929;51.178;4.138;2023-08-30T08:53:32;17.40;99.90
76172;DHT22;64929;51.178;4.138;2023-08-30T08:55:58;17.50;99.90
76172;DHT22;64929;51.178;4.138;2023-08-30T08:58:26;17.70;99.50
76172;DHT22;64929;51.178;4.138;2023-08-30T09:00:53;17.70;99.70
76172;DHT22;64929;51.178;4.138;2023-08-30T09:03:20;17.70;99.90
76172;DHT22;64929;51.178;4.138;2023-08-30T09:05:47;17.60;99.90
76172;DHT22;64929;51.178;4.138;2023-08-30T09:08:15;17.60;99.90
76172;DHT22;64929;51.178;4.138;2023-08-30T09:10:41;17.80;99.80
76172;DHT22;64929;51.178;4.138;2023-08-30T09:13:07;17.90;99.20
76172;DHT22;64929;51.178;4.138;2023-08-30T09:15:33;18.10;99.20
76172;DHT22;64929;51.178;4.138;2023-08-30T09:17:59;18.30;98.20
76172;DHT22;64929;51.178;4.138;2023-08-30T09:20:25;18.30;98.50
76172;DHT22;64929;51.178;4.138;2023-08-30T09:22:51;18.40;97.80
76172;DHT22;64929;51.178;4.138;2023-08-30T09:25:27;18.30;98.40
76172;DHT22;64929;51.178;4.138;2023-08-30T09:27:58;18.50;97.70
76172;DHT22;64929;51.178;4.138;2023-08-30T09:30:27;18.50;96.90
76172;DHT22;64929;51.178;4.138;2023-08-30T09:32:53;18.50;94.60
76172;DHT22;64929;51.178;4.138;2023-08-30T09:35:19;18.40;95.10
76172;DHT22;64929;51.178;4.138;2023-08-30T09:37:45;18.30;95.00
76172;DHT22;64929;51.178;4.138;2023-08-30T09:40:11;18.30;94.60
76172;DHT22;64929;51.178;4.138;2023-08-30T09:42:43;18.30;95.30
76172;DHT22;64929;51.178;4.138;2023-08-30T09:45:35;18.30;94.60
76172;DHT22;64929;51.178;4.138;2023-08-30T09:48:06;18.40;94.70
76172;DHT22;64929;51.178;4.138;2023-08-30T09:50:35;18.50;93.60
76172;DHT22;64929;51.178;4.138;2023-08-30T09:53:08;18.30;94.50
76172;DHT22;64929;51.178;4.138;2023-08-30T09:55:35;18.50;93.70
76172;DHT22;64929;51.178;4.138;2023-08-30T09:58:02;18.40;94.40
76172;DHT22;64929;51.178;4.138;2023-08-30T10:00:33;18.40;94.20
76172;DHT22;64929;51.178;4.138;2023-08-30T10:03:19;18.60;93.80
76172;DHT22;64929;51.178;4.138;2023-08-30T10:05:45;18.90;91.20
76172;DHT22;64929;51.178;4.138;2023-08-30T10:08:14;18.90;92.50
76172;DHT22;64929;51.178;4.138;2023-08-30T10:10:40;19.20;91.30
76172;DHT22;64929;51.178;4.138;2023-08-30T10:13:06;18.80;87.80
76172;DHT22;64929;51.178;4.138;2023-08-30T10:15:35;18.60;90.00
76172;DHT22;64929;51.178;4.138;2023-08-30T10:18:04;18.50;91.20
76172;DHT22;64929;51.178;4.138;2023-08-30T10:20:31;18.40;90.30
76172;DHT22;64929;51.178;4.138;2023-08-30T10:22:58;18.40;90.90
76172;DHT22;64929;51.178;4.138;2023-08-30T10:25:27;18.50;90.20
76172;DHT22;64929;51.178;4.138;2023-08-30T10:27:55;18.50;90.90
76172;DHT22;64929;51.178;4.138;2023-08-30T10:30:22;18.50;90.80
76172;DHT22;64929;51.178;4.138;2023-08-30T10:32:48;18.70;90.00
76172;DHT22;64929;51.178;4.138;2023-08-30T10:35:15;19.00;88.30
76172;DHT22;64929;51.178;4.138;2023-08-30T10:37:42;18.90;83.30
76172;DHT22;64929;51.178;4.138;2023-08-30T10:40:08;18.90;83.00
76172;DHT22;64929;51.178;4.138;2023-08-30T10:42:34;18.80;83.10
76172;DHT22;64929;51.178;4.138;2023-08-30T10:45:01;18.70;84.30
76172;DHT22;64929;51.178;4.138;2023-08-30T10:47:30;18.80;84.50
76172;DHT22;64929;51.178;4.138;2023-08-30T10:49:57;18.80;82.70
76172;DHT22;64929;51.178;4.138;2023-08-30T10:52:24;18.90;81.80
76172;DHT22;64929;51.178;4.138;2023-08-30T10:54:51;18.90;79.80
76172;DHT22;64929;51.178;4.138;2023-08-30T10:57:24;18.80;81.30
76172;DHT22;64929;51.178;4.138;2023-08-30T11:02:33;18.90;79.50
76172;DHT22;64929;51.178;4.138;2023-08-30T11:05:00;18.90;80.50
76172;DHT22;64929;51.178;4.138;2023-08-30T11:07:26;19.00;80.20
76172;DHT22;64929;51.178;4.138;2023-08-30T11:09:52;19.00;80.90
76172;DHT22;64929;51.178;4.138;2023-08-30T11:12:19;19.30;76.10
76172;DHT22;64929;51.178;4.138;2023-08-30T11:14:48;19.10;76.70
76172;DHT22;64929;51.178;4.138;2023-08-30T11:17:16;19.00;77.10
76172;DHT22;64929;51.178;4.138;2023-08-30T11:19:42;19.10;79.00
76172;DHT22;64929;51.178;4.138;2023-08-30T11:22:09;19.40;79.10
76172;DHT22;64929;51.178;4.138;2023-08-30T11:24:35;19.60;80.80
76172;DHT22;64929;51.178;4.138;2023-08-30T11:27:01;19.70;78.80
76172;DHT22;64929;51.178;4.138;2023-08-30T11:29:27;19.60;77.10
76172;DHT22;64929;51.178;4.138;2023-08-30T11:31:53;19.40;77.50
76172;DHT22;64929;51.178;4.138;2023-08-30T11:34:22;19.50;77.80
76172;DHT22;64929;51.178;4.138;2023-08-30T11:36:49;19.20;78.00
76172;DHT22;64929;51.178;4.138;2023-08-30T11:39:16;19.20;78.00
76172;DHT22;64929;51.178;4.138;2023-08-30T11:41:43;19.20;84.50
76172;DHT22;64929;51.178;4.138;2023-08-30T11:44:09;19.30;81.10
76172;DHT22;64929;51.178;4.138;2023-08-30T11:46:36;19.50;82.10
76172;DHT22;64929;51.178;4.138;2023-08-30T11:49:03;19.60;81.90
76172;DHT22;64929;51.178;4.138;2023-08-30T11:51:29;19.90;80.60
76172;DHT22;64929;51.178;4.138;2023-08-30T11:53:55;20.10;78.40
76172;DHT22;64929;51.178;4.138;2023-08-30T11:56:22;20.20;79.80
76172;DHT22;64929;51.178;4.138;2023-08-30T11:58:48;20.10;74.30
76172;DHT22;64929;51.178;4.138;2023-08-30T12:01:15;19.90;76.30
76172;DHT22;64929;51.178;4.138;2023-08-30T12:03:41;19.70;77.70
76172;DHT22;64929;51.178;4.138;2023-08-30T12:06:11;19.70;79.60
76172;DHT22;64929;51.178;4.138;2023-08-30T12:08:39;19.70;79.60
76172;DHT22;64929;51.178;4.138;2023-08-30T12:11:05;19.70;79.00
76172;DHT22;64929;51.178;4.138;2023-08-30T12:13:33;19.90;76.60
76172;DHT22;64929;51.178;4.138;2023-08-30T12:16:00;19.80;78.10
76172;DHT22;64929;51.178;4.138;2023-08-30T12:18:29;19.70;79.50
76172;DHT22;64929;51.178;4.138;2023-08-30T12:20:55;19.80;79.80
76172;DHT22;64929;51.178;4.138;2023-08-30T12:23:22;19.70;78.70
76172;DHT22;64929;51.178;4.138;2023-08-30T12:26:01;19.60;77.80
76172;DHT22;64929;51.178;4.138;2023-08-30T12:28:28;19.70;78.20
76172;DHT22;64929;51.178;4.138;2023-08-30T12:30:55;19.60;79.60
76172;DHT22;64929;51.178;4.138;2023-08-30T12:33:21;19.80;78.90
76172;DHT22;64929;51.178;4.138;2023-08-30T12:35:47;19.80;80.90
76172;DHT22;64929;51.178;4.138;2023-08-30T12:38:13;19.80;80.90
76172;DHT22;64929;51.178;4.138;2023-08-30T12:40:44;20.00;81.20
76172;DHT22;64929;51.178;4.138;2023-08-30T12:43:09;20.10;78.80
76172;DHT22;64929;51.178;4.138;2023-08-30T12:45:36;19.90;78.10
76172;DHT22;64929;51.178;4.138;2023-08-30T12:48:02;19.80;78.70
76172;DHT22;64929;51.178;4.138;2023-08-30T12:50:28;19.80;79.60
76172;DHT22;64929;51.178;4.138;2023-08-30T12:52:55;19.80;79.70
76172;DHT22;64929;51.178;4.138;2023-08-30T12:55:20;19.90;80.70
76172;DHT22;64929;51.178;4.138;2023-08-30T12:57:46;19.90;79.60
76172;DHT22;64929;51.178;4.138;2023-08-30T13:00:15;19.90;79.90
76172;DHT22;64929;51.178;4.138;2023-08-30T13:02:41;19.80;79.70
76172;DHT22;64929;51.178;4.138;2023-08-30T13:05:08;19.70;78.60
76172;DHT22;64929;51.178;4.138;2023-08-30T13:07:34;19.70;78.90
76172;DHT22;64929;51.178;4.138;2023-08-30T13:09:59;19.50;80.70
76172;DHT22;64929;51.178;4.138;2023-08-30T13:12:25;19.40;82.90
76172;DHT22;64929;51.178;4.138;2023-08-30T13:14:52;19.30;81.10
76172;DHT22;64929;51.178;4.138;2023-08-30T13:17:17;19.40;82.00
76172;DHT22;64929;51.178;4.138;2023-08-30T13:19:46;19.50;79.20
76172;DHT22;64929;51.178;4.138;2023-08-30T13:22:12;19.50;81.80
76172;DHT22;64929;51.178;4.138;2023-08-30T13:24:38;19.70;80.70
76172;DHT22;64929;51.178;4.138;2023-08-30T13:27:04;19.80;81.50
76172;DHT22;64929;51.178;4.138;2023-08-30T13:29:30;19.80;80.20
76172;DHT22;64929;51.178;4.138;2023-08-30T13:31:55;20.00;78.50
76172;DHT22;64929;51.178;4.138;2023-08-30T13:34:22;20.10;77.40
76172;DHT22;64929;51.178;4.138;2023-08-30T13:36:47;20.00;75.20
76172;DHT22;64929;51.178;4.138;2023-08-30T13:39:13;19.90;77.30
76172;DHT22;64929;51.178;4.138;2023-08-30T13:41:40;19.90;75.60
76172;DHT22;64929;51.178;4.138;2023-08-30T13:44:06;19.80;76.20
76172;DHT22;64929;51.178;4.138;2023-08-30T13:46:32;19.80;74.80
76172;DHT22;64929;51.178;4.138;2023-08-30T13:48:58;20.00;76.20
76172;DHT22;64929;51.178;4.138;2023-08-30T13:51:24;20.30;76.40
76172;DHT22;64929;51.178;4.138;2023-08-30T13:53:50;20.40;75.40
76172;DHT22;64929;51.178;4.138;2023-08-30T13:56:18;20.50;74.70
76172;DHT22;64929;51.178;4.138;2023-08-30T13:58:44;20.50;75.60
76172;DHT22;64929;51.178;4.138;2023-08-30T14:01:10;20.50;75.00
76172;DHT22;64929;51.178;4.138;2023-08-30T14:03:36;20.60;71.50
76172;DHT22;64929;51.178;4.138;2023-08-30T14:06:02;20.60;72.90
76172;DHT22;64929;51.178;4.138;2023-08-30T14:08:28;20.50;74.20
76172;DHT22;64929;51.178;4.138;2023-08-30T14:10:54;20.70;70.60
76172;DHT22;64929;51.178;4.138;2023-08-30T14:13:20;20.80;69.20
76172;DHT22;64929;51.178;4.138;2023-08-30T14:15:46;21.20;72.80
76172;DHT22;64929;51.178;4.138;2023-08-30T14:18:13;21.50;71.50
76172;DHT22;64929;51.178;4.138;2023-08-30T14:20:41;21.50;70.90
76172;DHT22;64929;51.178;4.138;2023-08-30T14:23:07;21.60;70.70
76172;DHT22;64929;51.178;4.138;2023-08-30T14:25:32;21.50;69.00
76172;DHT22;64929;51.178;4.138;2023-08-30T14:27:58;21.20;71.80
76172;DHT22;64929;51.178;4.138;2023-08-30T14:30:25;20.90;73.50
76172;DHT22;64929;51.178;4.138;2023-08-30T14:32:51;20.70;71.50
76172;DHT22;64929;51.178;4.138;2023-08-30T14:35:17;20.80;72.10
76172;DHT22;64929;51.178;4.138;2023-08-30T14:37:46;20.70;74.50
76172;DHT22;64929;51.178;4.138;2023-08-30T14:40:13;20.50;75.10
76172;DHT22;64929;51.178;4.138;2023-08-30T14:42:39;20.50;75.90
76172;DHT22;64929;51.178;4.138;2023-08-30T14:45:06;20.60;75.90
76172;DHT22;64929;51.178;4.138;2023-08-30T14:47:35;20.50;76.60
76172;DHT22;64929;51.178;4.138;2023-08-30T14:50:01;20.40;73.70
76172;DHT22;64929;51.178;4.138;2023-08-30T14:52:28;20.30;74.00
76172;DHT22;64929;51.178;4.138;2023-08-30T14:54:54;20.20;74.40
76172;DHT22;64929;51.178;4.138;2023-08-30T14:57:20;20.40;74.10
76172;DHT22;64929;51.178;4.138;2023-08-30T14:59:51;20.70;72.80
76172;DHT22;64929;51.178;4.138;2023-08-30T15:02:17;21.30;73.90
76172;DHT22;64929;51.178;4.138;2023-08-30T15:04:43;22.80;69.00
76172;DHT22;64929;51.178;4.138;2023-08-30T15:07:08;24.70;64.70
76172;DHT22;64929;51.178;4.138;2023-08-30T15:09:34;25.10;64.70
76172;DHT22;64929;51.178;4.138;2023-08-30T15:12:00;24.50;64.00
76172;DHT22;64929;51.178;4.138;2023-08-30T15:14:26;24.00;66.20
76172;DHT22;64929;51.178;4.138;2023-08-30T15:16:52;23.40;64.60
76172;DHT22;64929;51.178;4.138;2023-08-30T15:19:17;23.10;66.00
76172;DHT22;64929;51.178;4.138;2023-08-30T15:21:44;23.70;65.10
76172;DHT22;64929;51.178;4.138;2023-08-30T15:24:10;23.90;65.00
76172;DHT22;64929;51.178;4.138;2023-08-30T15:26:38;23.90;66.40
76172;DHT22;64929;51.178;4.138;2023-08-30T15:29:04;24.00;64.50
76172;DHT22;64929;51.178;4.138;2023-08-30T15:31:30;24.70;64.20
76172;DHT22;64929;51.178;4.138;2023-08-30T15:33:56;25.10;61.40